Time;durP1;ratioP1;P1;durP2;ratioP2;P2;SDS_P1;SDS_P2;PMS_P1;PMS_P2;Temp;Humidity;BMP_temperature;BMP_pressure;BME280_temperature;BME280_humidity;BME280_pressure;Samples;Min_cycle;Max_cycle;Signal;HPM_P1;HPM_P2
2023/03/08 00:00:09;;;;;;;1.38;0.80;;;0.80;99.90;;;;;;5042547;28;20025;-73
2023/03/08 00:02:35;;;;;;;2.40;0.90;;;1.00;99.90;;;;;;5065300;28;20043;-71
2023/03/08 00:05:01;;;;;;;2.95;0.80;;;1.20;99.90;;;;;;5050474;28;20483;-72
2023/03/08 00:07:26;;;;;;;1.15;0.65;;;1.30;99.90;;;;;;5056096;28;20472;-72
2023/03/08 00:09:52;;;;;;;1.52;0.50;;;1.10;99.90;;;;;;5050644;28;20075;-71
2023/03/08 00:12:18;;;;;;;0.70;0.60;;;0.80;99.90;;;;;;5045292;28;20193;-71
2023/03/08 00:14:46;;;;;;;0.75;0.68;;;0.80;99.90;;;;;;5030441;28;20044;-72
2023/03/08 00:17:12;;;;;;;1.67;0.80;;;1.10;99.90;;;;;;5065163;28;20044;-72
2023/03/08 00:19:38;;;;;;;1.70;0.90;;;0.70;99.90;;;;;;5058049;28;20093;-72
2023/03/08 00:22:03;;;;;;;4.25;0.90;;;1.20;99.90;;;;;;5060353;28;20322;-72
2023/03/08 00:24:30;;;;;;;1.10;0.88;;;1.20;99.90;;;;;;5069743;28;20131;-72
2023/03/08 00:26:56;;;;;;;1.42;0.63;;;1.00;99.90;;;;;;5068759;28;20036;-72
2023/03/08 00:29:21;;;;;;;0.55;0.50;;;0.90;99.90;;;;;;5071437;28;20071;-72
2023/03/08 00:31:47;;;;;;;3.27;0.70;;;1.10;99.90;;;;;;5062977;28;20044;-72
2023/03/08 00:34:13;;;;;;;1.10;0.63;;;0.70;99.90;;;;;;5042833;28;20609;-72
2023/03/08 00:36:38;;;;;;;2.85;0.70;;;0.60;99.90;;;;;;5038134;28;20048;-73
2023/03/08 00:39:04;;;;;;;1.85;0.65;;;0.60;99.90;;;;;;5044321;28;20041;-72
2023/03/08 00:41:30;;;;;;;1.60;0.60;;;1.10;99.90;;;;;;5060271;28;20123;-72
2023/03/08 00:43:56;;;;;;;0.30;0.25;;;0.90;99.90;;;;;;5055332;28;20386;-72
2023/03/08 00:46:24;;;;;;;0.73;0.40;;;0.50;99.90;;;;;;5059292;28;20166;-72
2023/03/08 00:48:52;;;;;;;0.68;0.50;;;0.60;99.90;;;;;;5072390;28;20184;-72
2023/03/08 00:51:20;;;;;;;0.90;0.40;;;0.50;99.90;;;;;;5041356;28;20044;-72
2023/03/08 00:53:47;;;;;;;0.40;0.30;;;0.30;99.90;;;;;;5028444;28;20475;-72
2023/03/08 00:56:13;;;;;;;2.47;0.40;;;0.70;99.90;;;;;;5042493;28;20036;-72
2023/03/08 00:58:40;;;;;;;0.52;0.30;;;0.30;99.90;;;;;;5056297;28;20040;-73
2023/03/08 01:01:06;;;;;;;;;;;0.60;99.90;;;;;;5059674;28;20042;-73
2023/03/08 01:03:32;;;;;;;0.20;0.20;;;0.30;99.90;;;;;;5067696;28;20329;-73
2023/03/08 01:06:04;;;;;;;0.60;0.40;;;0.30;99.90;;;;;;5043167;28;20048;-72
2023/03/08 01:08:29;;;;;;;0.63;0.30;;;0.20;99.90;;;;;;5054695;28;20551;-72
2023/03/08 01:10:58;;;;;;;0.52;0.50;;;0.30;99.90;;;;;;5067883;28;20128;-72
2023/03/08 01:13:29;;;;;;;1.73;0.65;;;0.20;99.90;;;;;;5069802;28;20041;-72
2023/03/08 01:15:55;;;;;;;0.60;0.52;;;0.30;99.90;;;;;;5052936;28;20040;-71
2023/03/08 01:18:21;;;;;;;1.50;0.40;;;0.30;99.90;;;;;;5063512;28;20050;-72
2023/03/08 01:21:00;;;;;;;0.70;0.38;;;0.80;99.90;;;;;;5043915;28;20043;-72
2023/03/08 01:23:26;;;;;;;1.13;0.50;;;0.80;99.90;;;;;;5057280;28;20456;-72
2023/03/08 01:26:22;;;;;;;1.00;0.43;;;0.80;99.90;;;;;;5068763;28;20431;-72
2023/03/08 01:31:55;;;;;;;;;;;0.30;99.90;;;;;;4994526;28;20049;-72
2023/03/08 01:34:21;;;;;;;0.80;0.50;;;0.80;99.90;;;;;;4993199;28;20379;-72
2023/03/08 01:37:05;;;;;;;1.23;0.60;;;0.80;99.90;;;;;;5010250;28;20141;-72
2023/03/08 01:39:46;;;;;;;1.17;0.50;;;0.80;99.90;;;;;;4993591;28;20082;-72
2023/03/08 01:42:11;;;;;;;1.00;0.40;;;0.80;99.90;;;;;;5030783;28;20586;-72
2023/03/08 01:44:48;;;;;;;0.70;0.38;;;0.80;99.90;;;;;;5067840;28;20279;-71
2023/03/08 01:47:25;;;;;;;0.60;0.28;;;0.70;99.90;;;;;;5050901;28;20052;-72
2023/03/08 01:49:52;;;;;;;;;;;0.60;99.90;;;;;;5055753;28;20075;-72
2023/03/08 01:52:28;;;;;;;0.52;0.30;;;0.30;99.90;;;;;;5053874;28;19920;-72
2023/03/08 01:54:57;;;;;;;0.68;0.40;;;0.40;99.90;;;;;;5060544;28;20052;-72
2023/03/08 01:57:27;;;;;;;1.05;0.40;;;0.30;99.90;;;;;;5070619;28;20044;-72
2023/03/08 01:59:57;;;;;;;0.45;0.40;;;0.20;99.90;;;;;;5069058;28;20914;-71
2023/03/08 02:02:31;;;;;;;1.73;0.60;;;0.20;99.90;;;;;;5064790;28;20040;-72
2023/03/08 02:04:57;;;;;;;0.88;0.47;;;0.30;99.90;;;;;;5059287;28;20468;-72
2023/03/08 02:07:22;;;;;;;1.17;0.50;;;0.40;99.90;;;;;;5071958;28;20049;-72
2023/03/08 02:09:49;;;;;;;1.58;0.70;;;0.40;99.90;;;;;;5059678;28;20076;-72
2023/03/08 02:12:14;;;;;;;1.42;0.40;;;0.40;99.90;;;;;;5068689;28;20052;-71
2023/03/08 02:14:42;;;;;;;0.85;0.45;;;0.40;99.90;;;;;;5069965;28;20098;-72
2023/03/08 02:17:09;;;;;;;1.42;0.50;;;0.40;99.90;;;;;;5063680;28;20353;-72
2023/03/08 02:19:56;;;;;;;2.97;0.55;;;0.50;99.90;;;;;;5070042;28;20039;-72
2023/03/08 02:22:22;;;;;;;0.95;0.47;;;1.00;99.90;;;;;;5060138;28;20084;-72
2023/03/08 02:24:48;;;;;;;0.73;0.40;;;0.90;99.90;;;;;;5066444;28;20452;-72
2023/03/08 02:27:22;;;;;;;3.33;0.55;;;1.10;99.90;;;;;;5069527;28;20045;-72
2023/03/08 02:29:48;;;;;;;1.15;0.60;;;0.70;99.90;;;;;;5068570;28;20147;-72
2023/03/08 02:32:14;;;;;;;1.05;0.57;;;1.20;99.90;;;;;;5072969;28;20045;-72
2023/03/08 02:34:40;;;;;;;3.00;0.80;;;1.20;99.90;;;;;;5064910;28;20052;-72
2023/03/08 02:37:06;;;;;;;2.47;0.50;;;1.10;99.90;;;;;;5065309;28;20442;-72
2023/03/08 02:39:32;;;;;;;1.70;0.50;;;1.20;99.90;;;;;;5065645;28;20057;-72
2023/03/08 02:41:58;;;;;;;0.75;0.47;;;0.80;99.90;;;;;;5064658;28;20055;-72
2023/03/08 02:44:24;;;;;;;4.03;0.50;;;1.00;99.90;;;;;;5067175;28;20499;-72
2023/03/08 02:46:51;;;;;;;1.42;0.55;;;1.00;99.90;;;;;;5060271;28;20047;-72
2023/03/08 02:49:16;;;;;;;;;;;0.80;99.90;;;;;;5068832;28;20097;-72
2023/03/08 02:51:42;;;;;;;2.13;0.45;;;0.80;99.90;;;;;;5062350;28;20010;-73
2023/03/08 02:54:08;;;;;;;3.37;0.60;;;1.20;99.90;;;;;;5052359;28;20086;-71
2023/03/08 02:56:36;;;;;;;1.70;0.73;;;0.80;99.90;;;;;;5059540;28;20362;-70
2023/03/08 02:59:03;;;;;;;1.42;0.47;;;1.10;99.90;;;;;;5056177;28;20298;-70
2023/03/08 03:01:28;;;;;;;1.70;0.60;;;0.70;99.90;;;;;;5040020;28;20040;-70
2023/03/08 03:03:54;;;;;;;3.03;0.60;;;0.90;99.90;;;;;;5037230;28;20052;-70
2023/03/08 03:06:21;;;;;;;2.38;0.60;;;0.90;99.90;;;;;;5055839;28;20343;-71
2023/03/08 03:08:47;;;;;;;1.02;0.50;;;0.60;99.90;;;;;;5069311;28;20072;-71
2023/03/08 03:11:15;;;;;;;1.13;0.50;;;0.70;99.90;;;;;;5059568;28;20432;-70
2023/03/08 03:13:41;;;;;;;1.33;0.60;;;0.80;99.90;;;;;;5070694;28;20056;-71
2023/03/08 03:16:12;;;;;;;2.08;0.55;;;0.50;99.90;;;;;;5065448;28;20044;-71
2023/03/08 03:18:38;;;;;;;0.45;0.30;;;0.50;99.90;;;;;;5068332;28;20493;-71
2023/03/08 03:21:05;;;;;;;3.13;0.60;;;0.50;99.90;;;;;;5059173;28;20137;-71
2023/03/08 03:23:31;;;;;;;1.73;0.95;;;0.50;99.90;;;;;;5065904;28;20052;-70
2023/03/08 03:26:02;;;;;;;1.52;0.50;;;0.70;99.90;;;;;;5054461;28;20137;-71
2023/03/08 03:28:27;;;;;;;1.35;0.60;;;0.40;99.90;;;;;;5070131;28;20514;-70
2023/03/08 03:30:53;;;;;;;1.33;0.50;;;0.60;99.90;;;;;;5062200;28;20045;-72
2023/03/08 03:33:19;;;;;;;0.40;0.30;;;0.30;99.90;;;;;;5033993;28;20306;-70
2023/03/08 03:35:44;;;;;;;0.65;0.30;;;0.60;99.90;;;;;;5067141;28;20841;-71
2023/03/08 03:38:10;;;;;;;0.33;0.30;;;0.50;99.90;;;;;;5067068;28;20095;-71
2023/03/08 03:40:36;;;;;;;1.47;0.27;;;0.40;99.90;;;;;;5067056;28;20318;-72
2023/03/08 03:43:01;;;;;;;0.35;0.30;;;0.10;99.90;;;;;;5085573;28;20493;-71
2023/03/08 03:45:27;;;;;;;1.85;0.40;;;0.10;99.90;;;;;;5057946;28;20049;-71
2023/03/08 03:47:53;;;;;;;0.68;0.30;;;0.20;99.90;;;;;;5064532;28;20048;-70
2023/03/08 03:50:18;;;;;;;0.65;0.30;;;0.10;99.90;;;;;;5065873;28;20506;-71
2023/03/08 03:52:44;;;;;;;0.75;0.30;;;0.40;99.90;;;;;;5070867;28;20162;-70
2023/03/08 03:55:10;;;;;;;1.50;0.52;;;0.40;99.90;;;;;;5054715;28;20064;-71
2023/03/08 03:57:35;;;;;;;0.85;0.50;;;0.30;99.90;;;;;;5072376;28;20052;-71
2023/03/08 04:00:01;;;;;;;0.95;0.30;;;0.10;99.90;;;;;;5072506;28;20370;-71
2023/03/08 04:02:27;;;;;;;0.47;0.38;;;0.20;99.90;;;;;;5064629;28;20033;-71
2023/03/08 04:04:53;;;;;;;0.55;0.40;;;0.00;99.90;;;;;;5072878;28;20093;-71
2023/03/08 04:07:18;;;;;;;1.10;0.40;;;0.40;99.90;;;;;;5066475;28;20067;-71
2023/03/08 04:09:44;;;;;;;0.40;0.30;;;0.20;99.90;;;;;;5069039;28;20303;-71
2023/03/08 04:12:10;;;;;;;0.57;0.30;;;0.40;99.90;;;;;;5070308;28;20066;-70
2023/03/08 04:14:35;;;;;;;0.70;0.47;;;0.10;99.90;;;;;;5072077;28;20052;-69
2023/03/08 04:17:01;;;;;;;1.42;0.50;;;0.20;99.90;;;;;;5047477;28;20400;-71
2023/03/08 04:19:27;;;;;;;1.45;0.47;;;0.50;99.90;;;;;;5063900;28;20056;-71
2023/03/08 04:21:52;;;;;;;1.00;0.47;;;0.50;99.90;;;;;;5069556;28;20048;-71
2023/03/08 04:24:18;;;;;;;1.77;0.57;;;0.60;99.90;;;;;;5084329;28;20299;-71
2023/03/08 04:26:44;;;;;;;0.60;0.40;;;0.20;99.90;;;;;;5067094;28;20302;-71
2023/03/08 04:29:09;;;;;;;1.42;0.40;;;0.40;99.90;;;;;;5059085;28;20041;-71
2023/03/08 04:31:35;;;;;;;1.08;0.38;;;0.40;99.90;;;;;;5069104;28;20055;-70
2023/03/08 04:34:02;;;;;;;0.88;0.40;;;0.00;99.90;;;;;;5067864;28;20117;-71
2023/03/08 04:36:28;;;;;;;1.75;0.40;;;0.00;99.90;;;;;;5054925;28;20083;-70
2023/03/08 04:38:54;;;;;;;1.25;0.40;;;0.20;99.90;;;;;;5070534;28;20629;-71
2023/03/08 04:41:20;;;;;;;0.80;0.40;;;0.00;99.90;;;;;;5072843;28;20123;-70
2023/03/08 04:43:54;;;;;;;1.02;0.32;;;0.00;99.90;;;;;;5058230;28;20043;-70
2023/03/08 04:46:22;;;;;;;0.70;0.60;;;0.50;99.90;;;;;;5055745;28;20057;-71
2023/03/08 04:48:51;;;;;;;0.45;0.30;;;0.20;99.90;;;;;;5071675;28;20045;-71
2023/03/08 04:51:17;;;;;;;0.70;0.30;;;-0.10;99.90;;;;;;5070215;28;20067;-71
2023/03/08 04:53:44;;;;;;;0.40;0.30;;;0.10;99.90;;;;;;5069475;28;20044;-71
2023/03/08 04:56:11;;;;;;;0.55;0.20;;;-0.10;99.90;;;;;;5054166;28;20049;-70
2023/03/08 04:58:37;;;;;;;0.70;0.30;;;0.40;99.90;;;;;;5051202;28;20052;-70
2023/03/08 05:01:15;;;;;;;0.43;0.30;;;-0.10;99.90;;;;;;5070415;28;20044;-71
2023/03/08 05:03:41;;;;;;;0.70;0.25;;;-0.20;99.90;;;;;;5067506;28;20091;-70
2023/03/08 05:06:07;;;;;;;0.40;0.20;;;0.40;99.90;;;;;;5069706;28;20600;-70
2023/03/08 05:08:33;;;;;;;0.20;0.20;;;0.00;99.90;;;;;;5069209;28;20063;-70
2023/03/08 05:11:00;;;;;;;0.55;0.20;;;0.30;99.90;;;;;;5068004;28;20147;-70
2023/03/08 05:13:29;;;;;;;0.35;0.20;;;0.30;99.90;;;;;;5068656;28;20045;-70
2023/03/08 05:15:55;;;;;;;0.20;0.20;;;-0.30;99.90;;;;;;5056226;28;20059;-70
2023/03/08 05:18:20;;;;;;;0.65;0.40;;;-0.40;99.90;;;;;;5063770;28;20044;-70
2023/03/08 05:20:57;;;;;;;0.87;0.43;;;0.00;99.90;;;;;;5053420;28;20040;-70
2023/03/08 05:23:24;;;;;;;;;;;0.00;99.90;;;;;;5060329;28;20291;-70
2023/03/08 05:25:57;;;;;;;0.90;0.50;;;0.00;99.90;;;;;;5057215;28;19921;-70
2023/03/08 05:28:25;;;;;;;0.60;0.35;;;0.20;99.90;;;;;;5051124;28;20048;-71
2023/03/08 05:31:13;;;;;;;1.25;0.65;;;-0.40;99.90;;;;;;5056975;28;20045;-71
2023/03/08 05:33:39;;;;;;;1.05;0.85;;;-0.30;99.90;;;;;;5069146;28;20048;-70
2023/03/08 05:36:05;;;;;;;;;;;-0.20;99.90;;;;;;5053935;28;20127;-70
2023/03/08 05:38:31;;;;;;;0.65;0.50;;;-0.40;99.90;;;;;;5061954;28;20007;-71
2023/03/08 05:41:05;;;;;;;0.73;0.60;;;0.10;99.90;;;;;;5068634;28;20223;-71
2023/03/08 05:43:32;;;;;;;0.40;0.40;;;-0.40;99.90;;;;;;5070894;28;20049;-68
2023/03/08 05:46:01;;;;;;;0.65;0.52;;;0.00;99.90;;;;;;5067186;28;20116;-70
2023/03/08 05:48:28;;;;;;;0.85;0.60;;;-0.30;99.90;;;;;;5070120;28;20048;-71
2023/03/08 05:50:54;;;;;;;0.60;0.40;;;-0.30;99.90;;;;;;5064035;28;20407;-71
2023/03/08 05:53:20;;;;;;;1.38;0.68;;;-0.50;99.90;;;;;;5041044;28;20040;-71
2023/03/08 05:55:46;;;;;;;;;;;-0.40;99.90;;;;;;5049746;28;20052;-71
2023/03/08 05:58:12;;;;;;;1.20;0.80;;;0.20;99.90;;;;;;5061780;28;19939;-72
2023/03/08 06:00:37;;;;;;;2.33;0.80;;;0.00;99.90;;;;;;5065394;28;20503;-72
2023/03/08 06:03:03;;;;;;;0.47;0.40;;;0.30;99.90;;;;;;5077705;28;20114;-72
2023/03/08 06:05:29;;;;;;;0.95;0.70;;;-0.20;99.90;;;;;;5075763;28;20352;-72
2023/03/08 06:07:55;;;;;;;1.08;0.77;;;0.30;99.90;;;;;;5062957;28;20048;-72
2023/03/08 06:10:21;;;;;;;0.65;0.57;;;0.10;99.90;;;;;;5062937;28;20060;-72
2023/03/08 06:12:47;;;;;;;1.73;0.70;;;0.10;99.90;;;;;;5047405;28;20419;-72
2023/03/08 06:15:13;;;;;;;0.88;0.50;;;-0.20;99.90;;;;;;5035785;28;20083;-70
2023/03/08 06:17:39;;;;;;;0.82;0.50;;;0.20;99.90;;;;;;5066132;28;20041;-70
2023/03/08 06:20:05;;;;;;;;;;;-0.20;99.90;;;;;;5035688;28;20047;-70
2023/03/08 06:22:31;;;;;;;0.80;0.60;;;0.00;99.90;;;;;;5035033;28;19920;-70
2023/03/08 06:24:57;;;;;;;0.93;0.50;;;0.50;99.90;;;;;;5044124;28;20090;-69
2023/03/08 06:27:22;;;;;;;0.57;0.43;;;-0.20;99.90;;;;;;5032424;28;20032;-71
2023/03/08 06:29:49;;;;;;;0.35;0.25;;;0.40;99.90;;;;;;5038589;28;20121;-70
2023/03/08 06:32:16;;;;;;;0.90;0.40;;;-0.20;99.90;;;;;;5050099;28;20044;-70
2023/03/08 06:34:42;;;;;;;0.93;0.50;;;0.10;99.90;;;;;;5048659;28;20487;-71
2023/03/08 06:37:07;;;;;;;0.95;0.40;;;-0.10;99.90;;;;;;5043302;28;20039;-70
2023/03/08 06:39:33;;;;;;;0.63;0.35;;;-0.10;99.90;;;;;;5056757;28;20071;-70
2023/03/08 06:42:01;;;;;;;0.43;0.32;;;-0.20;99.90;;;;;;5065146;28;20098;-70
2023/03/08 06:44:28;;;;;;;0.63;0.45;;;0.30;99.90;;;;;;5054454;28;20047;-72
2023/03/08 06:46:53;;;;;;;;;;;0.30;99.90;;;;;;5014316;28;20053;-71
2023/03/08 06:49:19;;;;;;;0.30;0.28;;;0.10;99.90;;;;;;5031391;28;20391;-71
2023/03/08 06:51:45;;;;;;;0.30;0.30;;;-0.10;99.90;;;;;;5033603;28;20068;-71
2023/03/08 06:54:16;;;;;;;0.63;0.40;;;0.50;99.90;;;;;;5033923;28;20516;-71
2023/03/08 06:56:43;;;;;;;0.60;0.40;;;0.30;99.90;;;;;;5049634;28;20317;-71
2023/03/08 06:59:08;;;;;;;0.75;0.50;;;0.00;99.90;;;;;;5018096;28;20043;-72
2023/03/08 07:01:34;;;;;;;0.67;0.40;;;0.80;99.90;;;;;;5052737;28;20048;-71
2023/03/08 07:04:00;;;;;;;0.30;0.30;;;0.40;99.90;;;;;;5068886;28;20386;-71
2023/03/08 07:06:25;;;;;;;1.30;0.65;;;0.80;99.90;;;;;;5001165;28;20299;-71
2023/03/08 07:08:51;;;;;;;2.10;1.00;;;0.80;99.90;;;;;;5054007;28;20452;-71
2023/03/08 07:11:17;;;;;;;1.98;1.20;;;0.90;99.90;;;;;;5054532;28;20048;-70
2023/03/08 07:13:42;;;;;;;1.95;1.30;;;0.70;99.90;;;;;;5027027;28;20131;-70
2023/03/08 07:16:10;;;;;;;2.15;1.48;;;0.70;99.90;;;;;;5032593;28;20125;-71
2023/03/08 07:18:36;;;;;;;2.83;2.10;;;0.60;99.90;;;;;;5034820;28;20113;-70
2023/03/08 07:21:02;;;;;;;3.10;2.40;;;0.60;99.90;;;;;;5051896;28;20049;-70
2023/03/08 07:23:28;;;;;;;7.47;3.63;;;1.20;99.90;;;;;;5016340;28;20072;-70
2023/03/08 07:25:53;;;;;;;3.90;3.28;;;1.10;99.90;;;;;;5033529;28;20080;-70
2023/03/08 07:28:19;;;;;;;5.07;2.55;;;1.40;99.90;;;;;;5035752;28;20429;-71
2023/03/08 07:30:47;;;;;;;3.65;2.90;;;0.90;99.90;;;;;;5050621;28;20453;-70
2023/03/08 07:33:13;;;;;;;3.33;2.70;;;0.90;99.90;;;;;;5050463;28;20053;-69
2023/03/08 07:35:39;;;;;;;4.28;3.10;;;1.50;99.90;;;;;;5041845;28;20055;-69
2023/03/08 07:38:05;;;;;;;5.72;3.45;;;1.10;99.90;;;;;;5064586;28;20418;-71
2023/03/08 07:40:30;;;;;;;3.83;3.08;;;1.30;99.90;;;;;;5029491;28;20060;-71
2023/03/08 07:42:56;;;;;;;3.92;2.65;;;1.30;99.90;;;;;;5045339;28;20043;-71
2023/03/08 07:45:22;;;;;;;3.85;2.30;;;1.30;99.90;;;;;;5049569;28;20048;-70
2023/03/08 07:47:51;;;;;;;2.83;2.22;;;1.70;99.90;;;;;;5068992;28;20036;-71
2023/03/08 07:50:18;;;;;;;2.60;2.03;;;1.60;99.90;;;;;;5058475;28;20036;-70
2023/03/08 07:52:43;;;;;;;;;;;1.90;99.90;;;;;;5041524;28;20624;-70
2023/03/08 07:55:10;;;;;;;4.50;3.33;;;1.70;99.90;;;;;;5052519;28;19974;-71
2023/03/08 07:57:36;;;;;;;3.50;3.20;;;1.90;99.90;;;;;;5057491;28;20083;-71
2023/03/08 08:00:06;;;;;;;4.05;3.40;;;1.70;99.90;;;;;;5044072;28;20384;-70
2023/03/08 08:02:32;;;;;;;4.32;3.50;;;2.00;99.90;;;;;;5053347;28;20491;-71
2023/03/08 08:04:58;;;;;;;;;;;1.80;99.90;;;;;;5055965;28;20050;-71
2023/03/08 08:07:24;;;;;;;6.47;4.30;;;1.70;99.90;;;;;;5054679;28;20330;-71
2023/03/08 08:09:50;;;;;;;3.30;3.00;;;2.00;99.90;;;;;;5041462;28;20503;-71
2023/03/08 08:12:16;;;;;;;5.03;3.72;;;2.30;99.90;;;;;;5056329;28;20480;-69
2023/03/08 08:14:41;;;;;;;3.30;2.78;;;2.40;99.90;;;;;;5067848;28;20056;-71
2023/03/08 08:17:07;;;;;;;4.28;3.40;;;2.00;99.90;;;;;;5048103;28;20475;-70
2023/03/08 08:19:33;;;;;;;6.13;4.00;;;2.10;99.90;;;;;;5065835;28;20039;-70
2023/03/08 08:21:59;;;;;;;5.05;3.92;;;2.50;99.90;;;;;;5067014;28;20080;-70
2023/03/08 08:24:26;;;;;;;7.68;4.78;;;2.30;99.90;;;;;;5062161;28;20123;-70
2023/03/08 08:26:52;;;;;;;6.50;4.43;;;2.20;99.90;;;;;;5045393;28;20502;-71
2023/03/08 08:29:18;;;;;;;4.57;4.10;;;2.40;99.90;;;;;;5061487;28;20040;-71
2023/03/08 08:31:43;;;;;;;4.65;4.20;;;2.40;99.90;;;;;;5059686;28;20056;-71
2023/03/08 08:34:09;;;;;;;4.37;3.63;;;2.40;99.90;;;;;;5081452;28;20396;-70
2023/03/08 08:36:35;;;;;;;5.00;4.05;;;2.60;99.90;;;;;;5048619;28;20795;-71
2023/03/08 08:39:01;;;;;;;4.10;3.70;;;2.50;99.90;;;;;;5050330;28;20085;-71
2023/03/08 08:41:28;;;;;;;4.43;3.47;;;2.60;99.90;;;;;;5045478;28;20395;-70
2023/03/08 08:43:58;;;;;;;5.28;4.13;;;2.80;99.90;;;;;;5028772;28;20051;-70
2023/03/08 08:46:26;;;;;;;6.63;3.90;;;2.90;99.90;;;;;;5066908;28;20052;-70
2023/03/08 08:48:53;;;;;;;4.30;3.80;;;2.70;99.90;;;;;;5062995;28;20452;-70
2023/03/08 08:51:19;;;;;;;;;;;3.00;99.90;;;;;;5052816;28;20048;-70
2023/03/08 08:53:44;;;;;;;3.85;3.35;;;2.80;99.90;;;;;;5066379;28;20364;-70
2023/03/08 08:56:15;;;;;;;5.83;2.87;;;2.80;99.90;;;;;;5065210;28;20046;-70
2023/03/08 08:58:41;;;;;;;2.97;2.53;;;3.20;99.90;;;;;;5052438;28;20322;-70
2023/03/08 09:01:25;;;;;;;2.97;2.67;;;3.30;99.90;;;;;;5048234;28;20373;-70
2023/03/08 09:03:51;;;;;;;3.50;2.53;;;3.20;99.90;;;;;;5065840;28;20048;-70
2023/03/08 09:06:19;;;;;;;2.35;2.10;;;3.20;99.90;;;;;;5071023;28;20376;-70
2023/03/08 09:08:49;;;;;;;2.30;2.00;;;3.40;99.90;;;;;;5069503;28;20362;-70
2023/03/08 09:11:16;;;;;;;3.13;2.17;;;3.60;99.90;;;;;;5068072;28;20049;-70
2023/03/08 09:13:41;;;;;;;2.60;2.10;;;3.80;99.90;;;;;;5069917;28;20412;-71
2023/03/08 09:16:31;;;;;;;3.92;2.25;;;3.70;99.90;;;;;;5069246;28;20045;-70
2023/03/08 09:18:58;;;;;;;3.30;2.95;;;3.70;99.90;;;;;;5050887;28;20415;-70
2023/03/08 09:21:25;;;;;;;3.60;2.50;;;3.80;99.90;;;;;;5070620;28;20589;-70
2023/03/08 09:23:51;;;;;;;3.30;2.40;;;3.70;99.90;;;;;;5070707;28;20040;-70
2023/03/08 09:26:17;;;;;;;2.47;2.28;;;3.80;99.90;;;;;;5072632;28;20044;-69
2023/03/08 09:28:43;;;;;;;2.95;2.17;;;3.90;99.90;;;;;;5038637;28;20480;-71
2023/03/08 09:31:13;;;;;;;3.55;2.20;;;4.00;99.90;;;;;;5046768;28;20052;-70
2023/03/08 09:33:45;;;;;;;2.00;1.60;;;4.00;99.90;;;;;;5069540;28;20109;-70
2023/03/08 09:36:11;;;;;;;2.60;1.90;;;4.20;99.90;;;;;;5071063;28;20055;-70
2023/03/08 09:38:37;;;;;;;2.78;2.25;;;4.20;99.90;;;;;;5069459;28;20040;-70
2023/03/08 09:41:14;;;;;;;2.70;2.08;;;4.20;99.90;;;;;;5066810;28;20033;-70
2023/03/08 09:43:49;;;;;;;2.40;2.03;;;4.30;99.90;;;;;;5035402;28;20121;-70
2023/03/08 09:46:22;;;;;;;3.20;2.10;;;4.30;99.90;;;;;;5051972;28;20075;-70
2023/03/08 09:48:50;;;;;;;2.05;1.77;;;4.30;99.90;;;;;;5052920;28;20060;-71
2023/03/08 09:51:19;;;;;;;2.53;1.83;;;4.30;99.90;;;;;;5071123;28;20120;-71
2023/03/08 09:53:56;;;;;;;2.72;1.85;;;4.30;99.90;;;;;;5067396;28;20463;-71
2023/03/08 09:56:28;;;;;;;2.10;1.70;;;4.40;99.90;;;;;;5053929;28;20505;-71
2023/03/08 09:59:20;;;;;;;2.17;1.83;;;4.50;99.90;;;;;;5053118;28;20371;-69
2023/03/08 10:02:19;;;;;;;1.42;1.33;;;4.50;99.90;;;;;;5051845;28;20049;-70
2023/03/08 10:04:48;;;;;;;7.05;2.22;;;4.50;99.90;;;;;;5051292;28;20041;-70
2023/03/08 10:07:49;;;;;;;2.30;1.70;;;4.50;99.90;;;;;;5051631;28;20127;-71
2023/03/08 10:10:47;;;;;;;3.40;2.70;;;4.50;99.90;;;;;;5039373;28;20057;-70
2023/03/08 10:13:31;;;;;;;2.80;2.30;;;4.60;99.90;;;;;;5047421;28;20063;-71
2023/03/08 10:16:27;;;;;;;3.20;2.28;;;4.70;99.90;;;;;;5065175;28;20044;-70
2023/03/08 10:19:17;;;;;;;5.38;3.17;;;4.80;99.90;;;;;;5063408;28;20492;-70
2023/03/08 10:21:44;;;;;;;5.03;3.63;;;4.60;99.90;;;;;;5068054;28;20035;-70
2023/03/08 10:24:35;;;;;;;3.88;3.13;;;4.50;99.90;;;;;;5065322;28;20045;-71
2023/03/08 10:27:32;;;;;;;5.15;3.78;;;4.60;99.90;;;;;;5067115;28;20510;-70
2023/03/08 10:30:00;;;;;;;4.57;3.33;;;4.70;99.90;;;;;;5038276;28;20045;-71
2023/03/08 10:32:27;;;;;;;4.38;3.40;;;4.90;99.90;;;;;;5051803;28;20084;-70
2023/03/08 10:35:01;;;;;;;6.15;4.05;;;4.80;99.90;;;;;;5035185;28;20059;-69
2023/03/08 10:37:31;;;;;;;3.83;3.35;;;4.80;99.90;;;;;;5062787;28;20498;-69
2023/03/08 10:40:02;;;;;;;3.58;3.28;;;4.80;99.90;;;;;;5064375;28;20074;-70
2023/03/08 10:42:30;;;;;;;3.15;2.65;;;4.80;99.90;;;;;;5049953;28;20388;-70
2023/03/08 10:45:15;;;;;;;2.75;2.10;;;4.90;99.90;;;;;;5062083;28;20077;-70
2023/03/08 10:47:41;;;;;;;2.97;1.92;;;5.10;99.90;;;;;;5057781;28;20484;-70
2023/03/08 10:50:12;;;;;;;2.55;2.00;;;5.10;99.90;;;;;;5033110;28;20047;-71
2023/03/08 10:52:39;;;;;;;2.47;1.98;;;5.20;99.90;;;;;;5051222;28;20092;-71
2023/03/08 10:55:09;;;;;;;;;;;5.30;99.90;;;;;;5062315;28;20045;-70
2023/03/08 10:57:36;;;;;;;4.22;2.00;;;5.40;99.90;;;;;;5068094;28;19920;-71
2023/03/08 11:00:28;;;;;;;2.53;1.75;;;5.50;99.90;;;;;;5062674;28;20036;-69
2023/03/08 11:03:15;;;;;;;2.92;2.03;;;5.60;99.90;;;;;;5053967;28;20052;-73
2023/03/08 11:05:58;;;;;;;2.92;2.20;;;5.70;99.90;;;;;;5054676;28;20491;-71
2023/03/08 11:08:31;;;;;;;2.65;2.00;;;5.70;99.90;;;;;;5066580;28;20049;-72
2023/03/08 11:11:09;;;;;;;2.95;2.13;;;5.90;99.90;;;;;;5065983;28;20056;-71
2023/03/08 11:13:38;;;;;;;3.03;1.90;;;5.90;99.90;;;;;;5061146;28;20052;-71
2023/03/08 11:16:22;;;;;;;2.63;1.60;;;5.80;99.90;;;;;;5048447;28;21006;-72
2023/03/08 11:19:30;;;;;;;2.47;1.33;;;5.70;99.90;;;;;;5050069;28;20029;-72
2023/03/08 11:22:01;;;;;;;5.47;1.20;;;5.60;99.90;;;;;;5067914;28;20479;-72
2023/03/08 11:24:59;;;;;;;3.10;1.40;;;5.70;99.90;;;;;;5051063;28;20040;-72
2023/03/08 11:27:37;;;;;;;2.20;0.90;;;5.70;97.80;;;;;;5070177;28;20518;-72
2023/03/08 11:30:34;;;;;;;1.58;0.80;;;5.80;97.90;;;;;;5037784;28;20403;-72
2023/03/08 11:33:30;;;;;;;2.58;0.80;;;5.80;96.00;;;;;;5062306;28;20738;-72
2023/03/08 11:36:07;;;;;;;1.13;0.60;;;5.70;99.90;;;;;;5065387;28;20141;-72
2023/03/08 11:38:34;;;;;;;;;;;5.70;94.30;;;;;;5064580;28;20441;-72
2023/03/08 11:41:26;;;;;;;3.33;0.60;;;5.60;82.70;;;;;;5043269;28;19921;-71
2023/03/08 11:44:23;;;;;;;3.50;0.70;;;5.60;80.90;;;;;;5050607;28;20047;-72
2023/03/08 11:47:16;;;;;;;3.08;0.88;;;5.60;80.50;;;;;;5047315;28;20105;-71
2023/03/08 11:49:48;;;;;;;2.92;0.73;;;5.70;80.40;;;;;;5022415;28;20103;-71
2023/03/08 11:52:17;;;;;;;1.90;0.60;;;5.90;84.40;;;;;;5047410;28;20471;-71
2023/03/08 11:55:00;;;;;;;3.33;1.10;;;6.00;93.20;;;;;;5047867;28;20044;-71
2023/03/08 11:57:33;;;;;;;1.98;1.33;;;5.90;83.40;;;;;;5032259;28;20045;-72
2023/03/08 12:00:25;;;;;;;2.38;1.10;;;5.90;74.50;;;;;;5047147;28;20113;-71
2023/03/08 12:02:52;;;;;;;1.88;0.90;;;5.90;74.70;;;;;;5046148;28;20105;-72
2023/03/08 12:05:25;;;;;;;3.15;1.15;;;6.20;70.70;;;;;;5049329;28;20044;-71
2023/03/08 12:08:01;;;;;;;1.73;1.23;;;6.30;73.40;;;;;;5051570;28;20041;-71
2023/03/08 12:10:57;;;;;;;2.45;1.20;;;6.40;72.90;;;;;;5045838;28;20458;-72
2023/03/08 12:13:33;;;;;;;2.33;1.10;;;6.40;91.40;;;;;;5052769;28;20066;-71
2023/03/08 12:16:10;;;;;;;2.50;1.20;;;6.50;99.90;;;;;;5031175;28;20141;-71
2023/03/08 12:18:39;;;;;;;1.67;1.02;;;6.50;73.60;;;;;;5047344;28;20123;-71
2023/03/08 12:21:31;;;;;;;1.20;1.00;;;6.60;78.80;;;;;;5060126;28;20094;-71
2023/03/08 12:24:18;;;;;;;2.58;1.00;;;6.60;74.90;;;;;;5037175;28;20068;-71
2023/03/08 12:27:03;;;;;;;3.08;1.30;;;6.50;58.90;;;;;;5038547;28;20052;-71
2023/03/08 12:29:51;;;;;;;1.55;1.02;;;6.40;41.10;;;;;;5052087;28;20064;-71
2023/03/08 12:32:19;;;;;;;2.88;1.00;;;6.40;52.60;;;;;;5069828;28;20045;-72
2023/03/08 12:34:45;;;;;;;3.22;0.85;;;6.50;99.90;;;;;;5054451;28;20494;-71
2023/03/08 12:37:26;;;;;;;3.03;0.90;;;6.40;99.90;;;;;;5069587;28;20043;-70
2023/03/08 12:39:58;;;;;;;2.65;0.90;;;6.00;48.00;;;;;;5087434;28;20032;-70
2023/03/08 12:42:32;;;;;;;1.67;0.80;;;5.90;15.60;;;;;;5040820;28;20119;-71
2023/03/08 12:45:22;;;;;;;2.90;0.90;;;5.90;17.80;;;;;;5069220;28;20131;-71
2023/03/08 12:48:13;;;;;;;2.20;0.80;;;6.00;25.40;;;;;;5054780;28;20051;-71
2023/03/08 12:50:45;;;;;;;1.23;0.80;;;6.00;31.20;;;;;;5056938;28;20041;-71
2023/03/08 12:53:30;;;;;;;2.08;0.95;;;5.90;23.30;;;;;;5055821;28;20033;-70
2023/03/08 12:56:10;;;;;;;2.10;1.27;;;5.90;21.80;;;;;;5051602;28;20113;-71
2023/03/08 12:58:59;;;;;;;2.05;1.08;;;5.90;22.50;;;;;;5049940;28;20040;-70
2023/03/08 13:01:45;;;;;;;2.28;1.00;;;5.90;42.40;;;;;;5053871;28;20051;-70
2023/03/08 13:04:28;;;;;;;1.33;0.60;;;5.90;41.50;;;;;;5057957;28;20040;-69
2023/03/08 13:06:54;;;;;;;2.17;0.70;;;6.10;26.20;;;;;;5057449;28;20376;-71
2023/03/08 13:09:45;;;;;;;3.33;1.00;;;6.30;48.10;;;;;;5066838;28;20050;-71
2023/03/08 13:12:14;;;;;;;2.25;0.95;;;6.10;12.00;;;;;;5037351;28;20351;-70
2023/03/08 13:14:45;;;;;;;2.67;0.70;;;6.30;12.80;;;;;;5052597;28;20127;-71
2023/03/08 13:17:29;;;;;;;1.95;0.70;;;6.40;14.00;;;;;;5037229;28;20361;-71
2023/03/08 13:20:19;;;;;;;3.38;0.80;;;6.60;5.80;;;;;;5053077;28;20045;-71